sensor_id;sensor_type;location;lat;lon;timestamp;P1;durP1;ratioP1;P2;durP2;ratioP2
71360;SDS011;59166;48.908;1.870;2023-04-24T00:03:22;11.23;;;2.50;;
71360;SDS011;59166;48.908;1.870;2023-04-24T00:08:23;9.30;;;2.13;;
71360;SDS011;59166;48.908;1.870;2023-04-24T00:13:25;8.20;;;2.05;;
71360;SDS011;59166;48.908;1.870;2023-04-24T00:18:28;9.50;;;2.58;;
71360;SDS011;59166;48.908;1.870;2023-04-24T00:23:28;6.37;;;2.10;;
71360;SDS011;59166;48.908;1.870;2023-04-24T00:28:30;7.75;;;2.30;;
71360;SDS011;59166;48.908;1.870;2023-04-24T00:33:32;7.67;;;2.50;;
71360;SDS011;59166;48.908;1.870;2023-04-24T00:38:33;8.60;;;2.50;;
71360;SDS011;59166;48.908;1.870;2023-04-24T00:43:34;7.93;;;2.30;;
71360;SDS011;59166;48.908;1.870;2023-04-24T00:48:36;9.90;;;2.33;;
71360;SDS011;59166;48.908;1.870;2023-04-24T00:53:38;10.18;;;2.50;;
71360;SDS011;59166;48.908;1.870;2023-04-24T00:58:39;9.65;;;2.85;;
71360;SDS011;59166;48.908;1.870;2023-04-24T01:03:42;8.70;;;2.70;;
71360;SDS011;59166;48.908;1.870;2023-04-24T01:08:42;9.77;;;2.40;;
71360;SDS011;59166;48.908;1.870;2023-04-24T01:13:45;11.40;;;2.47;;
71360;SDS011;59166;48.908;1.870;2023-04-24T01:18:49;8.97;;;2.40;;
71360;SDS011;59166;48.908;1.870;2023-04-24T01:23:51;9.80;;;2.55;;
71360;SDS011;59166;48.908;1.870;2023-04-24T01:28:52;7.45;;;2.25;;
71360;SDS011;59166;48.908;1.870;2023-04-24T01:33:53;7.77;;;2.40;;
71360;SDS011;59166;48.908;1.870;2023-04-24T01:38:56;7.68;;;2.42;;
71360;SDS011;59166;48.908;1.870;2023-04-24T01:43:57;9.52;;;2.50;;
71360;SDS011;59166;48.908;1.870;2023-04-24T01:48:58;9.57;;;2.30;;
71360;SDS011;59166;48.908;1.870;2023-04-24T01:54:02;7.87;;;2.27;;
71360;SDS011;59166;48.908;1.870;2023-04-24T01:59:03;9.57;;;2.50;;
71360;SDS011;59166;48.908;1.870;2023-04-24T02:04:04;8.52;;;2.80;;
71360;SDS011;59166;48.908;1.870;2023-04-24T02:09:07;8.40;;;2.60;;
71360;SDS011;59166;48.908;1.870;2023-04-24T02:14:08;6.53;;;2.30;;
71360;SDS011;59166;48.908;1.870;2023-04-24T02:19:09;11.97;;;2.43;;
71360;SDS011;59166;48.908;1.870;2023-04-24T02:24:11;6.55;;;1.98;;
71360;SDS011;59166;48.908;1.870;2023-04-24T02:29:12;6.03;;;1.92;;
71360;SDS011;59166;48.908;1.870;2023-04-24T02:34:13;8.07;;;2.37;;
71360;SDS011;59166;48.908;1.870;2023-04-24T02:39:19;7.97;;;2.40;;
71360;SDS011;59166;48.908;1.870;2023-04-24T02:44:20;8.20;;;2.40;;
71360;SDS011;59166;48.908;1.870;2023-04-24T02:49:21;7.87;;;2.10;;
71360;SDS011;59166;48.908;1.870;2023-04-24T02:54:24;8.20;;;2.07;;
71360;SDS011;59166;48.908;1.870;2023-04-24T02:59:24;7.97;;;2.17;;
71360;SDS011;59166;48.908;1.870;2023-04-24T03:04:25;8.52;;;2.17;;
71360;SDS011;59166;48.908;1.870;2023-04-24T03:09:27;7.97;;;2.10;;
71360;SDS011;59166;48.908;1.870;2023-04-24T03:14:28;8.27;;;2.42;;
71360;SDS011;59166;48.908;1.870;2023-04-24T03:19:29;7.40;;;2.40;;
71360;SDS011;59166;48.908;1.870;2023-04-24T03:24:31;11.13;;;2.50;;
71360;SDS011;59166;48.908;1.870;2023-04-24T03:29:32;9.45;;;2.30;;
71360;SDS011;59166;48.908;1.870;2023-04-24T03:34:33;9.67;;;2.50;;
71360;SDS011;59166;48.908;1.870;2023-04-24T03:39:35;7.18;;;2.38;;
71360;SDS011;59166;48.908;1.870;2023-04-24T03:44:36;7.87;;;2.10;;
71360;SDS011;59166;48.908;1.870;2023-04-24T03:49:37;9.35;;;2.60;;
71360;SDS011;59166;48.908;1.870;2023-04-24T03:54:39;6.80;;;2.27;;
71360;SDS011;59166;48.908;1.870;2023-04-24T03:59:40;7.63;;;2.28;;
71360;SDS011;59166;48.908;1.870;2023-04-24T04:04:41;8.77;;;2.63;;
71360;SDS011;59166;48.908;1.870;2023-04-24T04:09:43;8.37;;;2.20;;
71360;SDS011;59166;48.908;1.870;2023-04-24T04:14:44;6.82;;;2.40;;
71360;SDS011;59166;48.908;1.870;2023-04-24T04:19:45;8.40;;;2.33;;
71360;SDS011;59166;48.908;1.870;2023-04-24T04:24:47;9.70;;;2.97;;
71360;SDS011;59166;48.908;1.870;2023-04-24T04:29:48;8.90;;;2.30;;
71360;SDS011;59166;48.908;1.870;2023-04-24T04:34:49;10.00;;;2.50;;
71360;SDS011;59166;48.908;1.870;2023-04-24T04:39:52;9.07;;;2.60;;
71360;SDS011;59166;48.908;1.870;2023-04-24T04:44:53;10.38;;;3.08;;
71360;SDS011;59166;48.908;1.870;2023-04-24T04:49:54;10.00;;;3.20;;
71360;SDS011;59166;48.908;1.870;2023-04-24T04:54:56;8.02;;;2.42;;
71360;SDS011;59166;48.908;1.870;2023-04-24T04:59:58;8.88;;;3.00;;
71360;SDS011;59166;48.908;1.870;2023-04-24T05:04:59;7.63;;;2.50;;
71360;SDS011;59166;48.908;1.870;2023-04-24T05:10:01;9.98;;;3.35;;
71360;SDS011;59166;48.908;1.870;2023-04-24T05:15:02;13.23;;;3.35;;
71360;SDS011;59166;48.908;1.870;2023-04-24T05:20:04;8.87;;;3.00;;
71360;SDS011;59166;48.908;1.870;2023-04-24T05:25:08;10.40;;;3.40;;
71360;SDS011;59166;48.908;1.870;2023-04-24T05:30:09;10.52;;;3.33;;
71360;SDS011;59166;48.908;1.870;2023-04-24T05:35:11;11.90;;;3.42;;
71360;SDS011;59166;48.908;1.870;2023-04-24T05:40:13;12.20;;;3.70;;
71360;SDS011;59166;48.908;1.870;2023-04-24T05:45:14;11.82;;;3.88;;
71360;SDS011;59166;48.908;1.870;2023-04-24T05:50:15;10.30;;;3.70;;
71360;SDS011;59166;48.908;1.870;2023-04-24T05:55:19;13.07;;;4.50;;
71360;SDS011;59166;48.908;1.870;2023-04-24T06:00:20;13.13;;;4.68;;
71360;SDS011;59166;48.908;1.870;2023-04-24T06:05:21;13.63;;;4.53;;
71360;SDS011;59166;48.908;1.870;2023-04-24T06:10:23;13.68;;;4.43;;
71360;SDS011;59166;48.908;1.870;2023-04-24T06:15:24;13.38;;;5.20;;
71360;SDS011;59166;48.908;1.870;2023-04-24T06:20:25;11.07;;;3.97;;
71360;SDS011;59166;48.908;1.870;2023-04-24T06:25:28;12.32;;;3.88;;
71360;SDS011;59166;48.908;1.870;2023-04-24T06:30:29;13.45;;;4.70;;
71360;SDS011;59166;48.908;1.870;2023-04-24T06:35:30;12.80;;;4.70;;
71360;SDS011;59166;48.908;1.870;2023-04-24T06:40:33;12.50;;;4.80;;
71360;SDS011;59166;48.908;1.870;2023-04-24T06:45:33;11.68;;;4.88;;
71360;SDS011;59166;48.908;1.870;2023-04-24T06:50:34;10.70;;;3.30;;
71360;SDS011;59166;48.908;1.870;2023-04-24T06:55:37;8.48;;;2.78;;
71360;SDS011;59166;48.908;1.870;2023-04-24T07:00:38;10.18;;;3.53;;
71360;SDS011;59166;48.908;1.870;2023-04-24T07:05:39;13.83;;;4.13;;
71360;SDS011;59166;48.908;1.870;2023-04-24T07:10:41;11.30;;;3.35;;
71360;SDS011;59166;48.908;1.870;2023-04-24T07:15:42;10.50;;;3.93;;
71360;SDS011;59166;48.908;1.870;2023-04-24T07:20:43;12.40;;;4.90;;
71360;SDS011;59166;48.908;1.870;2023-04-24T07:25:52;14.10;;;5.25;;
71360;SDS011;59166;48.908;1.870;2023-04-24T07:31:08;15.70;;;5.10;;
71360;SDS011;59166;48.908;1.870;2023-04-24T07:36:19;15.33;;;5.33;;
71360;SDS011;59166;48.908;1.870;2023-04-24T07:41:34;15.15;;;5.90;;
71360;SDS011;59166;48.908;1.870;2023-04-24T07:46:41;15.95;;;5.88;;
71360;SDS011;59166;48.908;1.870;2023-04-24T07:51:46;14.17;;;5.40;;
71360;SDS011;59166;48.908;1.870;2023-04-24T07:56:51;16.80;;;6.65;;
71360;SDS011;59166;48.908;1.870;2023-04-24T08:01:51;15.85;;;6.85;;
71360;SDS011;59166;48.908;1.870;2023-04-24T08:06:52;16.33;;;6.77;;
71360;SDS011;59166;48.908;1.870;2023-04-24T08:11:55;11.95;;;4.80;;
71360;SDS011;59166;48.908;1.870;2023-04-24T08:16:56;17.13;;;6.25;;
71360;SDS011;59166;48.908;1.870;2023-04-24T08:22:16;12.53;;;4.63;;
71360;SDS011;59166;48.908;1.870;2023-04-24T08:27:18;14.15;;;5.78;;
71360;SDS011;59166;48.908;1.870;2023-04-24T08:32:19;15.57;;;6.53;;
71360;SDS011;59166;48.908;1.870;2023-04-24T08:37:20;15.00;;;6.53;;
71360;SDS011;59166;48.908;1.870;2023-04-24T08:42:23;16.23;;;6.75;;
71360;SDS011;59166;48.908;1.870;2023-04-24T08:47:25;14.30;;;6.25;;
71360;SDS011;59166;48.908;1.870;2023-04-24T08:52:28;16.00;;;6.63;;
71360;SDS011;59166;48.908;1.870;2023-04-24T08:57:31;18.43;;;7.13;;
71360;SDS011;59166;48.908;1.870;2023-04-24T09:02:33;17.30;;;6.55;;
71360;SDS011;59166;48.908;1.870;2023-04-24T09:07:34;17.35;;;7.00;;
71360;SDS011;59166;48.908;1.870;2023-04-24T09:12:40;15.20;;;6.80;;
71360;SDS011;59166;48.908;1.870;2023-04-24T09:17:42;13.48;;;6.20;;
71360;SDS011;59166;48.908;1.870;2023-04-24T09:22:43;15.52;;;6.32;;
71360;SDS011;59166;48.908;1.870;2023-04-24T09:27:47;14.57;;;5.57;;
71360;SDS011;59166;48.908;1.870;2023-04-24T09:32:48;14.85;;;6.15;;
71360;SDS011;59166;48.908;1.870;2023-04-24T09:37:49;15.82;;;7.65;;
71360;SDS011;59166;48.908;1.870;2023-04-24T09:42:53;18.37;;;6.47;;
71360;SDS011;59166;48.908;1.870;2023-04-24T09:47:55;14.27;;;6.82;;
71360;SDS011;59166;48.908;1.870;2023-04-24T09:52:56;15.27;;;6.22;;
71360;SDS011;59166;48.908;1.870;2023-04-24T09:58:00;14.83;;;6.03;;
71360;SDS011;59166;48.908;1.870;2023-04-24T10:03:02;20.00;;;6.63;;
71360;SDS011;59166;48.908;1.870;2023-04-24T10:08:05;12.93;;;6.07;;
71360;SDS011;59166;48.908;1.870;2023-04-24T10:13:09;15.03;;;6.53;;
71360;SDS011;59166;48.908;1.870;2023-04-24T10:18:11;13.80;;;6.17;;
71360;SDS011;59166;48.908;1.870;2023-04-24T10:23:12;16.60;;;7.07;;
71360;SDS011;59166;48.908;1.870;2023-04-24T10:28:14;14.40;;;6.18;;
71360;SDS011;59166;48.908;1.870;2023-04-24T10:33:16;14.83;;;6.30;;
71360;SDS011;59166;48.908;1.870;2023-04-24T10:38:21;15.32;;;6.03;;
71360;SDS011;59166;48.908;1.870;2023-04-24T10:43:26;14.25;;;5.57;;
71360;SDS011;59166;48.908;1.870;2023-04-24T10:48:27;13.73;;;5.70;;
71360;SDS011;59166;48.908;1.870;2023-04-24T10:53:29;11.63;;;5.75;;
71360;SDS011;59166;48.908;1.870;2023-04-24T10:58:38;14.65;;;5.80;;
71360;SDS011;59166;48.908;1.870;2023-04-24T11:03:40;10.00;;;4.30;;
71360;SDS011;59166;48.908;1.870;2023-04-24T11:09:03;11.15;;;4.55;;
71360;SDS011;59166;48.908;1.870;2023-04-24T11:14:06;9.57;;;4.00;;
71360;SDS011;59166;48.908;1.870;2023-04-24T11:19:08;8.47;;;3.80;;
71360;SDS011;59166;48.908;1.870;2023-04-24T11:24:23;10.50;;;4.57;;
71360;SDS011;59166;48.908;1.870;2023-04-24T11:29:48;9.23;;;3.78;;
71360;SDS011;59166;48.908;1.870;2023-04-24T11:34:50;7.85;;;3.03;;
71360;SDS011;59166;48.908;1.870;2023-04-24T11:40:12;7.53;;;2.60;;
71360;SDS011;59166;48.908;1.870;2023-04-24T11:45:16;8.70;;;3.00;;
71360;SDS011;59166;48.908;1.870;2023-04-24T11:50:18;7.80;;;2.45;;
71360;SDS011;59166;48.908;1.870;2023-04-24T11:55:25;7.10;;;2.67;;
71360;SDS011;59166;48.908;1.870;2023-04-24T12:00:29;8.23;;;2.90;;
71360;SDS011;59166;48.908;1.870;2023-04-24T12:05:31;9.95;;;3.00;;
71360;SDS011;59166;48.908;1.870;2023-04-24T12:10:32;7.67;;;2.87;;
71360;SDS011;59166;48.908;1.870;2023-04-24T12:15:35;7.78;;;2.88;;
71360;SDS011;59166;48.908;1.870;2023-04-24T12:20:40;8.52;;;3.30;;
71360;SDS011;59166;48.908;1.870;2023-04-24T12:25:41;7.93;;;3.20;;
71360;SDS011;59166;48.908;1.870;2023-04-24T12:30:43;8.02;;;3.33;;
71360;SDS011;59166;48.908;1.870;2023-04-24T12:35:47;8.70;;;2.78;;
71360;SDS011;59166;48.908;1.870;2023-04-24T12:41:00;9.40;;;3.77;;
71360;SDS011;59166;48.908;1.870;2023-04-24T12:46:03;9.85;;;3.70;;
71360;SDS011;59166;48.908;1.870;2023-04-24T12:51:05;10.57;;;3.90;;
71360;SDS011;59166;48.908;1.870;2023-04-24T12:56:06;9.20;;;3.63;;
71360;SDS011;59166;48.908;1.870;2023-04-24T13:01:08;6.75;;;2.38;;
71360;SDS011;59166;48.908;1.870;2023-04-24T13:06:09;9.02;;;3.42;;
71360;SDS011;59166;48.908;1.870;2023-04-24T13:11:10;6.53;;;2.13;;
71360;SDS011;59166;48.908;1.870;2023-04-24T13:16:12;6.40;;;1.77;;
71360;SDS011;59166;48.908;1.870;2023-04-24T13:21:13;7.27;;;2.80;;
71360;SDS011;59166;48.908;1.870;2023-04-24T13:26:14;7.43;;;2.10;;
71360;SDS011;59166;48.908;1.870;2023-04-24T13:31:17;8.75;;;2.50;;
71360;SDS011;59166;48.908;1.870;2023-04-24T13:36:17;7.30;;;2.70;;
71360;SDS011;59166;48.908;1.870;2023-04-24T13:41:18;6.10;;;2.30;;
71360;SDS011;59166;48.908;1.870;2023-04-24T13:46:21;6.57;;;1.90;;
71360;SDS011;59166;48.908;1.870;2023-04-24T13:51:22;6.75;;;2.20;;
71360;SDS011;59166;48.908;1.870;2023-04-24T13:56:23;6.47;;;2.40;;
71360;SDS011;59166;48.908;1.870;2023-04-24T14:01:25;5.70;;;2.03;;
71360;SDS011;59166;48.908;1.870;2023-04-24T14:06:26;6.20;;;2.28;;
71360;SDS011;59166;48.908;1.870;2023-04-24T14:11:27;7.05;;;2.60;;
71360;SDS011;59166;48.908;1.870;2023-04-24T14:16:30;5.57;;;2.07;;
71360;SDS011;59166;48.908;1.870;2023-04-24T14:21:31;7.00;;;2.45;;
71360;SDS011;59166;48.908;1.870;2023-04-24T14:26:32;8.90;;;2.78;;
71360;SDS011;59166;48.908;1.870;2023-04-24T14:31:35;7.90;;;2.43;;
71360;SDS011;59166;48.908;1.870;2023-04-24T14:36:36;6.88;;;2.67;;
71360;SDS011;59166;48.908;1.870;2023-04-24T14:41:37;6.70;;;2.47;;
71360;SDS011;59166;48.908;1.870;2023-04-24T14:46:39;6.00;;;2.13;;
71360;SDS011;59166;48.908;1.870;2023-04-24T14:51:40;5.53;;;2.17;;
71360;SDS011;59166;48.908;1.870;2023-04-24T14:56:41;5.37;;;2.00;;
71360;SDS011;59166;48.908;1.870;2023-04-24T15:01:43;6.13;;;2.15;;
71360;SDS011;59166;48.908;1.870;2023-04-24T15:06:44;6.95;;;2.45;;
71360;SDS011;59166;48.908;1.870;2023-04-24T15:11:45;6.10;;;2.20;;
71360;SDS011;59166;48.908;1.870;2023-04-24T15:16:48;6.32;;;2.10;;
71360;SDS011;59166;48.908;1.870;2023-04-24T15:21:49;6.75;;;2.20;;
71360;SDS011;59166;48.908;1.870;2023-04-24T15:26:49;8.03;;;2.30;;
71360;SDS011;59166;48.908;1.870;2023-04-24T15:31:52;6.50;;;2.55;;
71360;SDS011;59166;48.908;1.870;2023-04-24T15:36:53;6.53;;;2.50;;
71360;SDS011;59166;48.908;1.870;2023-04-24T15:41:54;7.47;;;2.53;;
71360;SDS011;59166;48.908;1.870;2023-04-24T15:46:57;6.90;;;2.40;;
71360;SDS011;59166;48.908;1.870;2023-04-24T15:52:00;6.10;;;2.20;;
71360;SDS011;59166;48.908;1.870;2023-04-24T15:57:01;6.83;;;2.70;;
71360;SDS011;59166;48.908;1.870;2023-04-24T16:02:04;8.07;;;2.55;;
71360;SDS011;59166;48.908;1.870;2023-04-24T16:07:05;6.90;;;2.78;;
71360;SDS011;59166;48.908;1.870;2023-04-24T16:12:05;6.47;;;2.77;;
71360;SDS011;59166;48.908;1.870;2023-04-24T16:17:08;7.95;;;2.88;;
71360;SDS011;59166;48.908;1.870;2023-04-24T16:22:09;8.47;;;2.87;;
71360;SDS011;59166;48.908;1.870;2023-04-24T16:27:10;8.03;;;2.90;;
71360;SDS011;59166;48.908;1.870;2023-04-24T16:32:13;9.23;;;3.30;;
71360;SDS011;59166;48.908;1.870;2023-04-24T16:37:14;7.57;;;2.80;;
71360;SDS011;59166;48.908;1.870;2023-04-24T16:42:15;7.37;;;2.60;;
71360;SDS011;59166;48.908;1.870;2023-04-24T16:47:17;7.05;;;2.60;;
71360;SDS011;59166;48.908;1.870;2023-04-24T16:52:18;6.38;;;2.40;;
71360;SDS011;59166;48.908;1.870;2023-04-24T16:57:19;6.80;;;2.37;;
71360;SDS011;59166;48.908;1.870;2023-04-24T17:02:22;6.45;;;2.60;;
71360;SDS011;59166;48.908;1.870;2023-04-24T17:07:22;7.17;;;2.50;;
71360;SDS011;59166;48.908;1.870;2023-04-24T17:12:23;5.60;;;2.13;;
71360;SDS011;59166;48.908;1.870;2023-04-24T17:17:26;6.60;;;2.40;;
71360;SDS011;59166;48.908;1.870;2023-04-24T17:22:27;6.40;;;2.40;;
71360;SDS011;59166;48.908;1.870;2023-04-24T17:27:28;7.95;;;2.80;;
71360;SDS011;59166;48.908;1.870;2023-04-24T17:32:30;8.55;;;3.22;;
71360;SDS011;59166;48.908;1.870;2023-04-24T17:37:32;7.50;;;3.00;;
71360;SDS011;59166;48.908;1.870;2023-04-24T17:42:33;9.32;;;3.72;;
71360;SDS011;59166;48.908;1.870;2023-04-24T17:47:35;13.25;;;6.20;;
71360;SDS011;59166;48.908;1.870;2023-04-24T17:52:36;10.37;;;4.77;;
71360;SDS011;59166;48.908;1.870;2023-04-24T17:57:37;10.30;;;5.10;;
71360;SDS011;59166;48.908;1.870;2023-04-24T18:02:39;10.85;;;5.47;;
71360;SDS011;59166;48.908;1.870;2023-04-24T18:07:40;12.80;;;5.87;;
71360;SDS011;59166;48.908;1.870;2023-04-24T18:12:41;10.75;;;4.10;;
71360;SDS011;59166;48.908;1.870;2023-04-24T18:17:43;15.43;;;5.40;;
71360;SDS011;59166;48.908;1.870;2023-04-24T18:22:45;11.27;;;4.80;;
71360;SDS011;59166;48.908;1.870;2023-04-24T18:27:46;10.48;;;4.00;;
71360;SDS011;59166;48.908;1.870;2023-04-24T18:32:48;12.70;;;4.50;;
71360;SDS011;59166;48.908;1.870;2023-04-24T18:37:50;8.73;;;3.22;;
71360;SDS011;59166;48.908;1.870;2023-04-24T18:42:51;9.63;;;3.50;;
71360;SDS011;59166;48.908;1.870;2023-04-24T18:47:53;10.20;;;4.00;;
71360;SDS011;59166;48.908;1.870;2023-04-24T18:52:54;10.45;;;3.78;;
71360;SDS011;59166;48.908;1.870;2023-04-24T18:57:55;8.95;;;4.07;;
71360;SDS011;59166;48.908;1.870;2023-04-24T19:02:58;10.10;;;3.90;;
71360;SDS011;59166;48.908;1.870;2023-04-24T19:07:59;11.18;;;4.32;;
71360;SDS011;59166;48.908;1.870;2023-04-24T19:13:00;11.90;;;4.97;;
71360;SDS011;59166;48.908;1.870;2023-04-24T19:18:02;11.07;;;5.13;;
71360;SDS011;59166;48.908;1.870;2023-04-24T19:23:03;12.02;;;5.18;;
71360;SDS011;59166;48.908;1.870;2023-04-24T19:28:04;12.07;;;6.03;;
71360;SDS011;59166;48.908;1.870;2023-04-24T19:33:06;13.25;;;7.53;;
71360;SDS011;59166;48.908;1.870;2023-04-24T19:38:07;12.52;;;5.68;;
71360;SDS011;59166;48.908;1.870;2023-04-24T19:43:08;12.70;;;5.83;;
71360;SDS011;59166;48.908;1.870;2023-04-24T19:48:11;13.07;;;5.40;;
71360;SDS011;59166;48.908;1.870;2023-04-24T19:53:12;11.25;;;4.57;;
71360;SDS011;59166;48.908;1.870;2023-04-24T19:58:13;10.03;;;4.53;;
71360;SDS011;59166;48.908;1.870;2023-04-24T20:03:15;11.20;;;4.45;;
71360;SDS011;59166;48.908;1.870;2023-04-24T20:08:16;10.30;;;4.45;;
71360;SDS011;59166;48.908;1.870;2023-04-24T20:13:17;10.80;;;4.40;;
71360;SDS011;59166;48.908;1.870;2023-04-24T20:18:20;13.18;;;5.70;;
71360;SDS011;59166;48.908;1.870;2023-04-24T20:23:21;10.07;;;4.07;;
71360;SDS011;59166;48.908;1.870;2023-04-24T20:28:21;11.40;;;5.03;;
71360;SDS011;59166;48.908;1.870;2023-04-24T20:33:24;12.93;;;5.15;;
71360;SDS011;59166;48.908;1.870;2023-04-24T20:38:25;11.10;;;4.77;;
71360;SDS011;59166;48.908;1.870;2023-04-24T20:43:26;9.47;;;4.53;;
71360;SDS011;59166;48.908;1.870;2023-04-24T20:48:28;9.50;;;4.53;;
71360;SDS011;59166;48.908;1.870;2023-04-24T20:53:29;9.83;;;4.20;;
71360;SDS011;59166;48.908;1.870;2023-04-24T20:58:30;10.93;;;4.20;;
71360;SDS011;59166;48.908;1.870;2023-04-24T21:03:32;9.73;;;4.10;;
71360;SDS011;59166;48.908;1.870;2023-04-24T21:08:33;11.18;;;4.10;;
71360;SDS011;59166;48.908;1.870;2023-04-24T21:13:34;9.10;;;3.72;;
71360;SDS011;59166;48.908;1.870;2023-04-24T21:18:37;9.37;;;3.93;;
71360;SDS011;59166;48.908;1.870;2023-04-24T21:23:38;11.70;;;4.18;;
71360;SDS011;59166;48.908;1.870;2023-04-24T21:28:38;9.23;;;3.73;;
71360;SDS011;59166;48.908;1.870;2023-04-24T21:33:41;10.20;;;4.25;;
71360;SDS011;59166;48.908;1.870;2023-04-24T21:38:42;11.30;;;4.00;;
71360;SDS011;59166;48.908;1.870;2023-04-24T21:43:43;10.77;;;4.17;;
71360;SDS011;59166;48.908;1.870;2023-04-24T21:48:45;10.63;;;3.85;;
71360;SDS011;59166;48.908;1.870;2023-04-24T21:53:46;9.43;;;3.90;;
71360;SDS011;59166;48.908;1.870;2023-04-24T21:58:47;11.57;;;4.65;;
71360;SDS011;59166;48.908;1.870;2023-04-24T22:03:49;12.93;;;5.87;;
71360;SDS011;59166;48.908;1.870;2023-04-24T22:08:50;9.20;;;4.10;;
71360;SDS011;59166;48.908;1.870;2023-04-24T22:13:51;8.88;;;3.45;;
71360;SDS011;59166;48.908;1.870;2023-04-24T22:18:53;11.07;;;3.20;;
71360;SDS011;59166;48.908;1.870;2023-04-24T22:23:54;11.43;;;3.80;;
71360;SDS011;59166;48.908;1.870;2023-04-24T22:28:54;11.13;;;3.80;;
71360;SDS011;59166;48.908;1.870;2023-04-24T22:33:57;8.38;;;3.33;;
71360;SDS011;59166;48.908;1.870;2023-04-24T22:38:57;9.70;;;3.67;;
71360;SDS011;59166;48.908;1.870;2023-04-24T22:43:58;9.25;;;3.47;;
71360;SDS011;59166;48.908;1.870;2023-04-24T22:49:01;8.73;;;3.57;;
71360;SDS011;59166;48.908;1.870;2023-04-24T22:54:02;9.23;;;3.63;;
71360;SDS011;59166;48.908;1.870;2023-04-24T22:59:03;10.55;;;3.88;;
71360;SDS011;59166;48.908;1.870;2023-04-24T23:04:05;8.63;;;3.60;;
71360;SDS011;59166;48.908;1.870;2023-04-24T23:09:06;9.50;;;3.50;;
71360;SDS011;59166;48.908;1.870;2023-04-24T23:14:07;10.80;;;4.83;;
71360;SDS011;59166;48.908;1.870;2023-04-24T23:19:09;10.57;;;4.15;;
71360;SDS011;59166;48.908;1.870;2023-04-24T23:24:10;9.75;;;3.95;;
71360;SDS011;59166;48.908;1.870;2023-04-24T23:29:11;9.73;;;3.70;;
71360;SDS011;59166;48.908;1.870;2023-04-24T23:34:13;10.02;;;3.88;;
71360;SDS011;59166;48.908;1.870;2023-04-24T23:39:14;9.30;;;3.33;;
71360;SDS011;59166;48.908;1.870;2023-04-24T23:44:15;10.35;;;3.55;;
71360;SDS011;59166;48.908;1.870;2023-04-24T23:49:18;8.57;;;3.10;;
71360;SDS011;59166;48.908;1.870;2023-04-24T23:54:18;10.37;;;3.40;;
71360;SDS011;59166;48.908;1.870;2023-04-24T23:59:19;8.63;;;3.08;;
